sensor_id;sensor_type;location;lat;lon;timestamp;P1;durP1;ratioP1;P2;durP2;ratioP2
48871;SDS011;36154;51.674;7.824;2022-12-13T00:01:30;1.25;;;1.20;;
48871;SDS011;36154;51.674;7.824;2022-12-13T00:03:57;1.35;;;1.25;;
48871;SDS011;36154;51.674;7.824;2022-12-13T00:06:24;0.80;;;0.80;;
48871;SDS011;36154;51.674;7.824;2022-12-13T00:08:50;1.23;;;1.23;;
48871;SDS011;36154;51.674;7.824;2022-12-13T00:11:15;1.15;;;1.15;;
48871;SDS011;36154;51.674;7.824;2022-12-13T00:13:41;1.23;;;1.20;;
48871;SDS011;36154;51.674;7.824;2022-12-13T00:16:09;1.10;;;1.10;;
48871;SDS011;36154;51.674;7.824;2022-12-13T00:18:36;0.88;;;0.88;;
48871;SDS011;36154;51.674;7.824;2022-12-13T00:21:05;0.90;;;0.90;;
48871;SDS011;36154;51.674;7.824;2022-12-13T00:23:31;1.00;;;1.00;;
48871;SDS011;36154;51.674;7.824;2022-12-13T00:26:06;1.08;;;1.02;;
48871;SDS011;36154;51.674;7.824;2022-12-13T00:28:34;0.95;;;0.95;;
48871;SDS011;36154;51.674;7.824;2022-12-13T00:31:00;0.80;;;0.80;;
48871;SDS011;36154;51.674;7.824;2022-12-13T00:33:26;1.13;;;0.95;;
48871;SDS011;36154;51.674;7.824;2022-12-13T00:35:52;0.80;;;0.80;;
48871;SDS011;36154;51.674;7.824;2022-12-13T00:38:18;0.80;;;0.80;;
48871;SDS011;36154;51.674;7.824;2022-12-13T00:40:44;0.80;;;0.80;;
48871;SDS011;36154;51.674;7.824;2022-12-13T00:43:09;0.98;;;0.98;;
48871;SDS011;36154;51.674;7.824;2022-12-13T00:45:34;0.80;;;0.80;;
48871;SDS011;36154;51.674;7.824;2022-12-13T00:48:00;1.13;;;1.13;;
48871;SDS011;36154;51.674;7.824;2022-12-13T00:50:25;0.70;;;0.70;;
48871;SDS011;36154;51.674;7.824;2022-12-13T00:52:50;0.93;;;0.82;;
48871;SDS011;36154;51.674;7.824;2022-12-13T00:55:16;1.08;;;1.08;;
48871;SDS011;36154;51.674;7.824;2022-12-13T00:57:43;1.00;;;1.00;;
48871;SDS011;36154;51.674;7.824;2022-12-13T01:00:09;0.82;;;0.82;;
48871;SDS011;36154;51.674;7.824;2022-12-13T01:02:34;0.75;;;0.75;;
48871;SDS011;36154;51.674;7.824;2022-12-13T01:05:00;1.10;;;1.10;;
48871;SDS011;36154;51.674;7.824;2022-12-13T01:07:25;0.98;;;0.98;;
48871;SDS011;36154;51.674;7.824;2022-12-13T01:09:53;0.77;;;0.77;;
48871;SDS011;36154;51.674;7.824;2022-12-13T01:12:18;1.10;;;1.10;;
48871;SDS011;36154;51.674;7.824;2022-12-13T01:14:43;0.95;;;0.95;;
48871;SDS011;36154;51.674;7.824;2022-12-13T01:17:08;0.90;;;0.90;;
48871;SDS011;36154;51.674;7.824;2022-12-13T01:19:34;0.90;;;0.90;;
48871;SDS011;36154;51.674;7.824;2022-12-13T01:22:01;0.75;;;0.75;;
48871;SDS011;36154;51.674;7.824;2022-12-13T01:24:29;0.90;;;0.90;;
48871;SDS011;36154;51.674;7.824;2022-12-13T01:26:55;0.70;;;0.70;;
48871;SDS011;36154;51.674;7.824;2022-12-13T01:29:21;0.80;;;0.80;;
48871;SDS011;36154;51.674;7.824;2022-12-13T01:31:47;0.70;;;0.70;;
48871;SDS011;36154;51.674;7.824;2022-12-13T01:34:14;0.98;;;0.98;;
48871;SDS011;36154;51.674;7.824;2022-12-13T01:36:42;1.05;;;1.05;;
48871;SDS011;36154;51.674;7.824;2022-12-13T01:39:09;0.95;;;0.95;;
48871;SDS011;36154;51.674;7.824;2022-12-13T01:41:36;0.80;;;0.80;;
48871;SDS011;36154;51.674;7.824;2022-12-13T01:44:02;0.80;;;0.80;;
48871;SDS011;36154;51.674;7.824;2022-12-13T01:46:51;0.82;;;0.82;;
48871;SDS011;36154;51.674;7.824;2022-12-13T01:49:16;0.80;;;0.80;;
48871;SDS011;36154;51.674;7.824;2022-12-13T01:51:46;0.82;;;0.82;;
48871;SDS011;36154;51.674;7.824;2022-12-13T01:54:13;0.80;;;0.80;;
48871;SDS011;36154;51.674;7.824;2022-12-13T01:56:43;0.70;;;0.70;;
48871;SDS011;36154;51.674;7.824;2022-12-13T01:59:13;0.65;;;0.65;;
48871;SDS011;36154;51.674;7.824;2022-12-13T02:01:42;1.00;;;1.00;;
48871;SDS011;36154;51.674;7.824;2022-12-13T02:04:08;0.80;;;0.80;;
48871;SDS011;36154;51.674;7.824;2022-12-13T02:06:40;0.80;;;0.80;;
48871;SDS011;36154;51.674;7.824;2022-12-13T02:09:08;0.90;;;0.90;;
48871;SDS011;36154;51.674;7.824;2022-12-13T02:11:34;0.70;;;0.70;;
48871;SDS011;36154;51.674;7.824;2022-12-13T02:14:02;0.90;;;0.90;;
48871;SDS011;36154;51.674;7.824;2022-12-13T02:25:11;0.80;;;0.80;;
48871;SDS011;36154;51.674;7.824;2022-12-13T02:31:29;0.77;;;0.77;;
48871;SDS011;36154;51.674;7.824;2022-12-13T02:36:08;0.80;;;0.80;;
48871;SDS011;36154;51.674;7.824;2022-12-13T02:38:44;0.80;;;0.80;;
48871;SDS011;36154;51.674;7.824;2022-12-13T02:41:28;0.90;;;0.90;;
48871;SDS011;36154;51.674;7.824;2022-12-13T02:46:45;0.77;;;0.77;;
48871;SDS011;36154;51.674;7.824;2022-12-13T02:49:16;0.70;;;0.70;;
48871;SDS011;36154;51.674;7.824;2022-12-13T02:51:43;0.70;;;0.70;;
48871;SDS011;36154;51.674;7.824;2022-12-13T02:54:09;0.60;;;0.60;;
48871;SDS011;36154;51.674;7.824;2022-12-13T02:56:34;0.82;;;0.82;;
48871;SDS011;36154;51.674;7.824;2022-12-13T02:59:00;0.75;;;0.75;;
48871;SDS011;36154;51.674;7.824;2022-12-13T03:09:28;0.80;;;0.80;;
48871;SDS011;36154;51.674;7.824;2022-12-13T03:12:18;0.68;;;0.68;;
48871;SDS011;36154;51.674;7.824;2022-12-13T03:15:17;0.80;;;0.80;;
48871;SDS011;36154;51.674;7.824;2022-12-13T03:17:51;0.60;;;0.60;;
48871;SDS011;36154;51.674;7.824;2022-12-13T03:20:21;0.60;;;0.60;;
48871;SDS011;36154;51.674;7.824;2022-12-13T03:22:49;0.65;;;0.65;;
48871;SDS011;36154;51.674;7.824;2022-12-13T03:25:15;0.60;;;0.60;;
48871;SDS011;36154;51.674;7.824;2022-12-13T03:27:41;0.80;;;0.80;;
48871;SDS011;36154;51.674;7.824;2022-12-13T03:30:06;0.88;;;0.88;;
48871;SDS011;36154;51.674;7.824;2022-12-13T03:32:32;0.50;;;0.50;;
48871;SDS011;36154;51.674;7.824;2022-12-13T03:34:57;0.68;;;0.68;;
48871;SDS011;36154;51.674;7.824;2022-12-13T03:37:22;1.00;;;0.68;;
48871;SDS011;36154;51.674;7.824;2022-12-13T03:39:48;0.80;;;0.80;;
48871;SDS011;36154;51.674;7.824;2022-12-13T03:42:13;0.60;;;0.60;;
48871;SDS011;36154;51.674;7.824;2022-12-13T03:44:39;0.50;;;0.50;;
48871;SDS011;36154;51.674;7.824;2022-12-13T03:47:04;0.70;;;0.70;;
48871;SDS011;36154;51.674;7.824;2022-12-13T03:49:29;0.80;;;0.80;;
48871;SDS011;36154;51.674;7.824;2022-12-13T03:51:54;0.60;;;0.60;;
48871;SDS011;36154;51.674;7.824;2022-12-13T03:54:20;0.70;;;0.70;;
48871;SDS011;36154;51.674;7.824;2022-12-13T03:56:45;0.65;;;0.65;;
48871;SDS011;36154;51.674;7.824;2022-12-13T03:59:10;0.70;;;0.70;;
48871;SDS011;36154;51.674;7.824;2022-12-13T04:01:36;0.85;;;0.85;;
48871;SDS011;36154;51.674;7.824;2022-12-13T04:04:01;0.60;;;0.60;;
48871;SDS011;36154;51.674;7.824;2022-12-13T04:06:26;0.70;;;0.70;;
48871;SDS011;36154;51.674;7.824;2022-12-13T04:08:54;0.85;;;0.85;;
48871;SDS011;36154;51.674;7.824;2022-12-13T04:11:19;0.85;;;0.85;;
48871;SDS011;36154;51.674;7.824;2022-12-13T04:14:03;0.93;;;0.93;;
48871;SDS011;36154;51.674;7.824;2022-12-13T04:16:29;1.10;;;1.10;;
48871;SDS011;36154;51.674;7.824;2022-12-13T04:18:54;0.60;;;0.60;;
48871;SDS011;36154;51.674;7.824;2022-12-13T04:21:19;0.70;;;0.70;;
48871;SDS011;36154;51.674;7.824;2022-12-13T04:23:44;0.90;;;0.90;;
48871;SDS011;36154;51.674;7.824;2022-12-13T04:26:10;0.88;;;0.88;;
48871;SDS011;36154;51.674;7.824;2022-12-13T04:28:35;1.40;;;0.68;;
48871;SDS011;36154;51.674;7.824;2022-12-13T04:31:00;0.80;;;0.80;;
48871;SDS011;36154;51.674;7.824;2022-12-13T04:33:26;0.63;;;0.63;;
48871;SDS011;36154;51.674;7.824;2022-12-13T04:35:51;0.80;;;0.80;;
48871;SDS011;36154;51.674;7.824;2022-12-13T04:38:17;0.70;;;0.70;;
48871;SDS011;36154;51.674;7.824;2022-12-13T04:40:42;0.88;;;0.88;;
48871;SDS011;36154;51.674;7.824;2022-12-13T04:43:08;0.90;;;0.90;;
48871;SDS011;36154;51.674;7.824;2022-12-13T04:45:33;0.70;;;0.70;;
48871;SDS011;36154;51.674;7.824;2022-12-13T04:47:58;0.90;;;0.90;;
48871;SDS011;36154;51.674;7.824;2022-12-13T04:50:24;0.80;;;0.80;;
48871;SDS011;36154;51.674;7.824;2022-12-13T04:52:49;0.80;;;0.80;;
48871;SDS011;36154;51.674;7.824;2022-12-13T04:55:14;1.10;;;0.98;;
48871;SDS011;36154;51.674;7.824;2022-12-13T04:57:40;0.80;;;0.80;;
48871;SDS011;36154;51.674;7.824;2022-12-13T05:00:05;0.70;;;0.70;;
48871;SDS011;36154;51.674;7.824;2022-12-13T05:02:33;0.75;;;0.75;;
48871;SDS011;36154;51.674;7.824;2022-12-13T05:04:59;0.90;;;0.90;;
48871;SDS011;36154;51.674;7.824;2022-12-13T05:07:25;0.77;;;0.77;;
48871;SDS011;36154;51.674;7.824;2022-12-13T05:09:50;0.80;;;0.80;;
48871;SDS011;36154;51.674;7.824;2022-12-13T05:12:16;2.22;;;2.03;;
48871;SDS011;36154;51.674;7.824;2022-12-13T05:14:41;3.92;;;3.20;;
48871;SDS011;36154;51.674;7.824;2022-12-13T05:17:06;6.10;;;4.78;;
48871;SDS011;36154;51.674;7.824;2022-12-13T05:19:31;4.88;;;4.25;;
48871;SDS011;36154;51.674;7.824;2022-12-13T05:21:57;5.40;;;4.50;;
48871;SDS011;36154;51.674;7.824;2022-12-13T05:24:25;5.90;;;4.53;;
48871;SDS011;36154;51.674;7.824;2022-12-13T05:26:53;6.43;;;3.85;;
48871;SDS011;36154;51.674;7.824;2022-12-13T05:29:18;6.78;;;4.80;;
48871;SDS011;36154;51.674;7.824;2022-12-13T05:31:44;7.30;;;4.28;;
48871;SDS011;36154;51.674;7.824;2022-12-13T05:34:09;5.07;;;3.92;;
48871;SDS011;36154;51.674;7.824;2022-12-13T05:36:34;6.45;;;3.70;;
48871;SDS011;36154;51.674;7.824;2022-12-13T05:39:00;8.32;;;4.47;;
48871;SDS011;36154;51.674;7.824;2022-12-13T05:41:26;4.85;;;3.70;;
48871;SDS011;36154;51.674;7.824;2022-12-13T05:43:55;4.45;;;3.35;;
48871;SDS011;36154;51.674;7.824;2022-12-13T05:46:21;3.47;;;3.17;;
48871;SDS011;36154;51.674;7.824;2022-12-13T05:48:47;12.88;;;3.88;;
48871;SDS011;36154;51.674;7.824;2022-12-13T05:51:12;5.18;;;3.95;;
48871;SDS011;36154;51.674;7.824;2022-12-13T05:53:38;3.47;;;3.17;;
48871;SDS011;36154;51.674;7.824;2022-12-13T05:56:05;3.60;;;3.30;;
48871;SDS011;36154;51.674;7.824;2022-12-13T05:58:30;10.20;;;3.67;;
48871;SDS011;36154;51.674;7.824;2022-12-13T06:01:03;6.32;;;3.60;;
48871;SDS011;36154;51.674;7.824;2022-12-13T06:03:32;4.05;;;3.65;;
48871;SDS011;36154;51.674;7.824;2022-12-13T06:05:59;6.85;;;3.55;;
48871;SDS011;36154;51.674;7.824;2022-12-13T06:08:25;4.25;;;3.30;;
48871;SDS011;36154;51.674;7.824;2022-12-13T06:10:54;7.07;;;3.42;;
48871;SDS011;36154;51.674;7.824;2022-12-13T06:13:20;4.03;;;3.58;;
48871;SDS011;36154;51.674;7.824;2022-12-13T06:15:46;3.38;;;2.95;;
48871;SDS011;36154;51.674;7.824;2022-12-13T06:18:11;3.10;;;2.80;;
48871;SDS011;36154;51.674;7.824;2022-12-13T06:20:37;2.92;;;2.72;;
48871;SDS011;36154;51.674;7.824;2022-12-13T06:23:02;3.72;;;2.65;;
48871;SDS011;36154;51.674;7.824;2022-12-13T06:25:28;3.80;;;2.60;;
48871;SDS011;36154;51.674;7.824;2022-12-13T06:27:53;2.47;;;2.28;;
48871;SDS011;36154;51.674;7.824;2022-12-13T06:30:18;2.88;;;2.00;;
48871;SDS011;36154;51.674;7.824;2022-12-13T06:32:46;2.13;;;1.90;;
48871;SDS011;36154;51.674;7.824;2022-12-13T06:35:12;2.22;;;2.00;;
48871;SDS011;36154;51.674;7.824;2022-12-13T06:37:40;2.00;;;1.90;;
48871;SDS011;36154;51.674;7.824;2022-12-13T06:40:06;1.70;;;1.60;;
48871;SDS011;36154;51.674;7.824;2022-12-13T06:42:31;1.70;;;1.60;;
48871;SDS011;36154;51.674;7.824;2022-12-13T06:44:57;1.50;;;1.40;;
48871;SDS011;36154;51.674;7.824;2022-12-13T06:47:23;1.33;;;1.27;;
48871;SDS011;36154;51.674;7.824;2022-12-13T06:49:51;1.55;;;1.45;;
48871;SDS011;36154;51.674;7.824;2022-12-13T06:52:16;1.20;;;1.10;;
48871;SDS011;36154;51.674;7.824;2022-12-13T06:54:42;1.20;;;1.10;;
48871;SDS011;36154;51.674;7.824;2022-12-13T06:57:08;1.10;;;1.00;;
48871;SDS011;36154;51.674;7.824;2022-12-13T06:59:37;1.00;;;1.00;;
48871;SDS011;36154;51.674;7.824;2022-12-13T07:02:02;1.13;;;1.13;;
48871;SDS011;36154;51.674;7.824;2022-12-13T07:04:28;1.00;;;1.00;;
48871;SDS011;36154;51.674;7.824;2022-12-13T07:06:54;1.50;;;1.40;;
48871;SDS011;36154;51.674;7.824;2022-12-13T07:09:19;1.38;;;1.27;;
48871;SDS011;36154;51.674;7.824;2022-12-13T07:11:44;1.95;;;1.85;;
48871;SDS011;36154;51.674;7.824;2022-12-13T07:14:09;1.30;;;1.20;;
48871;SDS011;36154;51.674;7.824;2022-12-13T07:16:35;1.08;;;1.08;;
48871;SDS011;36154;51.674;7.824;2022-12-13T07:19:00;1.40;;;1.30;;
48871;SDS011;36154;51.674;7.824;2022-12-13T07:21:26;1.10;;;1.10;;
48871;SDS011;36154;51.674;7.824;2022-12-13T07:23:52;1.10;;;1.00;;
48871;SDS011;36154;51.674;7.824;2022-12-13T07:26:18;1.10;;;1.10;;
48871;SDS011;36154;51.674;7.824;2022-12-13T07:28:44;1.38;;;1.20;;
48871;SDS011;36154;51.674;7.824;2022-12-13T07:31:09;1.33;;;1.23;;
48871;SDS011;36154;51.674;7.824;2022-12-13T07:33:35;1.05;;;1.05;;
48871;SDS011;36154;51.674;7.824;2022-12-13T07:38:40;1.10;;;1.10;;
48871;SDS011;36154;51.674;7.824;2022-12-13T07:41:06;1.10;;;1.00;;
48871;SDS011;36154;51.674;7.824;2022-12-13T07:43:32;1.00;;;1.00;;
48871;SDS011;36154;51.674;7.824;2022-12-13T07:45:58;0.75;;;0.75;;
48871;SDS011;36154;51.674;7.824;2022-12-13T07:48:25;1.10;;;1.10;;
48871;SDS011;36154;51.674;7.824;2022-12-13T07:50:52;1.17;;;1.17;;
48871;SDS011;36154;51.674;7.824;2022-12-13T07:53:18;1.00;;;1.00;;
48871;SDS011;36154;51.674;7.824;2022-12-13T07:55:43;1.17;;;1.17;;
48871;SDS011;36154;51.674;7.824;2022-12-13T07:58:09;1.02;;;1.02;;
48871;SDS011;36154;51.674;7.824;2022-12-13T08:00:36;1.00;;;1.00;;
48871;SDS011;36154;51.674;7.824;2022-12-13T08:03:03;1.13;;;1.13;;
48871;SDS011;36154;51.674;7.824;2022-12-13T08:05:30;1.17;;;1.17;;
48871;SDS011;36154;51.674;7.824;2022-12-13T08:07:55;1.20;;;1.10;;
48871;SDS011;36154;51.674;7.824;2022-12-13T08:10:21;1.15;;;1.15;;
48871;SDS011;36154;51.674;7.824;2022-12-13T08:12:49;1.25;;;1.25;;
48871;SDS011;36154;51.674;7.824;2022-12-13T08:15:15;1.02;;;1.02;;
48871;SDS011;36154;51.674;7.824;2022-12-13T08:17:41;1.55;;;1.45;;
48871;SDS011;36154;51.674;7.824;2022-12-13T08:20:06;1.20;;;1.20;;
48871;SDS011;36154;51.674;7.824;2022-12-13T08:22:32;1.10;;;1.10;;
48871;SDS011;36154;51.674;7.824;2022-12-13T08:24:57;1.08;;;1.08;;
48871;SDS011;36154;51.674;7.824;2022-12-13T08:27:23;1.20;;;1.20;;
48871;SDS011;36154;51.674;7.824;2022-12-13T08:29:48;1.08;;;1.08;;
48871;SDS011;36154;51.674;7.824;2022-12-13T08:32:13;1.35;;;1.25;;
48871;SDS011;36154;51.674;7.824;2022-12-13T08:34:41;1.40;;;1.40;;
48871;SDS011;36154;51.674;7.824;2022-12-13T08:37:07;1.33;;;1.33;;
48871;SDS011;36154;51.674;7.824;2022-12-13T08:39:33;1.10;;;1.10;;
48871;SDS011;36154;51.674;7.824;2022-12-13T08:42:04;1.30;;;1.20;;
48871;SDS011;36154;51.674;7.824;2022-12-13T08:44:34;1.23;;;1.23;;
48871;SDS011;36154;51.674;7.824;2022-12-13T08:47:00;1.33;;;1.30;;
48871;SDS011;36154;51.674;7.824;2022-12-13T08:49:25;1.25;;;1.25;;
48871;SDS011;36154;51.674;7.824;2022-12-13T08:51:50;1.15;;;1.15;;
48871;SDS011;36154;51.674;7.824;2022-12-13T08:54:16;1.20;;;1.20;;
48871;SDS011;36154;51.674;7.824;2022-12-13T08:56:41;1.23;;;1.13;;
48871;SDS011;36154;51.674;7.824;2022-12-13T08:59:06;1.10;;;1.10;;
48871;SDS011;36154;51.674;7.824;2022-12-13T09:01:31;1.20;;;1.20;;
48871;SDS011;36154;51.674;7.824;2022-12-13T09:03:57;1.00;;;1.00;;
48871;SDS011;36154;51.674;7.824;2022-12-13T09:06:22;1.13;;;1.02;;
48871;SDS011;36154;51.674;7.824;2022-12-13T09:08:47;1.00;;;1.00;;
48871;SDS011;36154;51.674;7.824;2022-12-13T09:11:13;1.05;;;1.05;;
48871;SDS011;36154;51.674;7.824;2022-12-13T09:13:38;0.90;;;0.90;;
48871;SDS011;36154;51.674;7.824;2022-12-13T09:18:31;0.88;;;0.88;;
48871;SDS011;36154;51.674;7.824;2022-12-13T09:20:56;0.90;;;0.90;;
48871;SDS011;36154;51.674;7.824;2022-12-13T09:23:21;0.82;;;0.82;;
48871;SDS011;36154;51.674;7.824;2022-12-13T09:25:53;0.82;;;0.82;;
48871;SDS011;36154;51.674;7.824;2022-12-13T09:28:19;0.75;;;0.75;;
48871;SDS011;36154;51.674;7.824;2022-12-13T09:30:45;0.90;;;0.90;;
48871;SDS011;36154;51.674;7.824;2022-12-13T09:33:10;0.60;;;0.60;;
48871;SDS011;36154;51.674;7.824;2022-12-13T09:35:36;0.60;;;0.60;;
48871;SDS011;36154;51.674;7.824;2022-12-13T09:38:02;0.60;;;0.60;;
48871;SDS011;36154;51.674;7.824;2022-12-13T09:40:27;0.65;;;0.65;;
48871;SDS011;36154;51.674;7.824;2022-12-13T09:42:55;0.55;;;0.55;;
48871;SDS011;36154;51.674;7.824;2022-12-13T09:45:22;0.70;;;0.70;;
48871;SDS011;36154;51.674;7.824;2022-12-13T09:47:48;0.60;;;0.60;;
48871;SDS011;36154;51.674;7.824;2022-12-13T09:50:32;0.88;;;0.88;;
48871;SDS011;36154;51.674;7.824;2022-12-13T09:52:59;1.10;;;1.10;;
48871;SDS011;36154;51.674;7.824;2022-12-13T09:55:30;1.60;;;1.50;;
48871;SDS011;36154;51.674;7.824;2022-12-13T09:57:59;2.45;;;2.25;;
48871;SDS011;36154;51.674;7.824;2022-12-13T10:00:32;2.10;;;2.00;;
48871;SDS011;36154;51.674;7.824;2022-12-13T10:02:59;1.35;;;1.35;;
48871;SDS011;36154;51.674;7.824;2022-12-13T10:07:57;1.25;;;1.17;;
48871;SDS011;36154;51.674;7.824;2022-12-13T10:10:24;3.10;;;1.90;;
48871;SDS011;36154;51.674;7.824;2022-12-13T10:13:02;1.77;;;1.67;;
48871;SDS011;36154;51.674;7.824;2022-12-13T10:15:55;1.90;;;1.80;;
48871;SDS011;36154;51.674;7.824;2022-12-13T10:18:37;1.95;;;1.85;;
48871;SDS011;36154;51.674;7.824;2022-12-13T10:21:16;1.20;;;1.20;;
48871;SDS011;36154;51.674;7.824;2022-12-13T10:23:46;1.10;;;1.10;;
48871;SDS011;36154;51.674;7.824;2022-12-13T10:26:12;1.17;;;1.17;;
48871;SDS011;36154;51.674;7.824;2022-12-13T10:28:37;1.08;;;1.08;;
48871;SDS011;36154;51.674;7.824;2022-12-13T10:31:04;1.40;;;1.30;;
48871;SDS011;36154;51.674;7.824;2022-12-13T10:33:31;1.98;;;1.35;;
48871;SDS011;36154;51.674;7.824;2022-12-13T10:36:06;1.60;;;1.50;;
48871;SDS011;36154;51.674;7.824;2022-12-13T10:38:52;2.25;;;2.05;;
48871;SDS011;36154;51.674;7.824;2022-12-13T10:41:25;2.10;;;2.00;;
48871;SDS011;36154;51.674;7.824;2022-12-13T10:44:05;2.08;;;1.98;;
48871;SDS011;36154;51.674;7.824;2022-12-13T10:46:40;2.08;;;1.98;;
48871;SDS011;36154;51.674;7.824;2022-12-13T10:49:19;2.38;;;2.00;;
48871;SDS011;36154;51.674;7.824;2022-12-13T10:51:46;2.20;;;2.10;;
48871;SDS011;36154;51.674;7.824;2022-12-13T10:54:15;1.90;;;1.80;;
48871;SDS011;36154;51.674;7.824;2022-12-13T10:56:49;1.45;;;1.45;;
48871;SDS011;36154;51.674;7.824;2022-12-13T11:08:12;1.83;;;1.73;;
48871;SDS011;36154;51.674;7.824;2022-12-13T11:10:40;2.08;;;1.98;;
48871;SDS011;36154;51.674;7.824;2022-12-13T11:13:06;2.10;;;2.00;;
48871;SDS011;36154;51.674;7.824;2022-12-13T11:15:33;1.60;;;1.50;;
48871;SDS011;36154;51.674;7.824;2022-12-13T11:18:03;1.33;;;1.33;;
48871;SDS011;36154;51.674;7.824;2022-12-13T11:26:14;1.52;;;1.42;;
48871;SDS011;36154;51.674;7.824;2022-12-13T11:33:48;1.30;;;1.30;;
48871;SDS011;36154;51.674;7.824;2022-12-13T11:41:41;1.38;;;1.38;;
48871;SDS011;36154;51.674;7.824;2022-12-13T11:44:18;1.42;;;1.40;;
48871;SDS011;36154;51.674;7.824;2022-12-13T11:47:04;1.60;;;1.60;;
48871;SDS011;36154;51.674;7.824;2022-12-13T11:49:40;1.77;;;1.67;;
48871;SDS011;36154;51.674;7.824;2022-12-13T11:54:46;1.35;;;1.35;;
48871;SDS011;36154;51.674;7.824;2022-12-13T12:00:37;1.30;;;1.30;;
48871;SDS011;36154;51.674;7.824;2022-12-13T12:02:48;1.60;;;1.50;;
48871;SDS011;36154;51.674;7.824;2022-12-13T12:05:27;1.77;;;1.45;;
48871;SDS011;36154;51.674;7.824;2022-12-13T12:10:47;1.45;;;1.40;;
48871;SDS011;36154;51.674;7.824;2022-12-13T12:16:32;1.00;;;1.00;;
48871;SDS011;36154;51.674;7.824;2022-12-13T12:19:08;1.30;;;1.30;;
48871;SDS011;36154;51.674;7.824;2022-12-13T12:21:48;1.20;;;1.20;;
48871;SDS011;36154;51.674;7.824;2022-12-13T12:24:45;1.70;;;1.60;;
48871;SDS011;36154;51.674;7.824;2022-12-13T12:32:40;1.10;;;1.10;;
48871;SDS011;36154;51.674;7.824;2022-12-13T12:37:58;1.08;;;1.08;;
48871;SDS011;36154;51.674;7.824;2022-12-13T12:40:52;1.20;;;1.20;;
48871;SDS011;36154;51.674;7.824;2022-12-13T12:43:35;1.02;;;1.02;;
48871;SDS011;36154;51.674;7.824;2022-12-13T12:52:15;1.10;;;1.10;;
48871;SDS011;36154;51.674;7.824;2022-12-13T13:00:21;1.35;;;1.10;;
48871;SDS011;36154;51.674;7.824;2022-12-13T13:05:34;0.95;;;0.95;;
48871;SDS011;36154;51.674;7.824;2022-12-13T13:08:19;1.20;;;1.20;;
48871;SDS011;36154;51.674;7.824;2022-12-13T13:10:49;1.00;;;1.00;;
48871;SDS011;36154;51.674;7.824;2022-12-13T13:15:57;0.98;;;0.90;;
48871;SDS011;36154;51.674;7.824;2022-12-13T13:26:36;1.08;;;1.08;;
48871;SDS011;36154;51.674;7.824;2022-12-13T13:31:57;1.00;;;1.00;;
48871;SDS011;36154;51.674;7.824;2022-12-13T13:34:35;1.02;;;1.02;;
48871;SDS011;36154;51.674;7.824;2022-12-13T13:37:03;1.08;;;0.98;;
48871;SDS011;36154;51.674;7.824;2022-12-13T13:42:08;1.40;;;1.30;;
48871;SDS011;36154;51.674;7.824;2022-12-13T13:47:15;1.15;;;1.15;;
48871;SDS011;36154;51.674;7.824;2022-12-13T14:06:05;18.25;;;4.40;;
48871;SDS011;36154;51.674;7.824;2022-12-13T14:08:44;23.00;;;4.78;;
48871;SDS011;36154;51.674;7.824;2022-12-13T14:28:49;16.15;;;4.13;;
48871;SDS011;36154;51.674;7.824;2022-12-13T14:31:23;15.88;;;3.97;;
48871;SDS011;36154;51.674;7.824;2022-12-13T14:33:54;11.80;;;3.40;;
48871;SDS011;36154;51.674;7.824;2022-12-13T14:36:30;12.27;;;3.72;;
48871;SDS011;36154;51.674;7.824;2022-12-13T14:39:03;13.90;;;4.15;;
48871;SDS011;36154;51.674;7.824;2022-12-13T14:41:30;16.10;;;4.28;;
48871;SDS011;36154;51.674;7.824;2022-12-13T14:44:12;9.20;;;3.85;;
48871;SDS011;36154;51.674;7.824;2022-12-13T14:46:49;11.32;;;3.15;;
48871;SDS011;36154;51.674;7.824;2022-12-13T14:49:19;7.78;;;3.38;;
48871;SDS011;36154;51.674;7.824;2022-12-13T14:51:46;11.82;;;3.60;;
48871;SDS011;36154;51.674;7.824;2022-12-13T14:54:17;10.00;;;3.20;;
48871;SDS011;36154;51.674;7.824;2022-12-13T14:56:57;9.60;;;3.30;;
48871;SDS011;36154;51.674;7.824;2022-12-13T14:59:27;9.07;;;3.33;;
48871;SDS011;36154;51.674;7.824;2022-12-13T15:02:01;9.43;;;3.25;;
48871;SDS011;36154;51.674;7.824;2022-12-13T15:04:29;12.43;;;2.97;;
48871;SDS011;36154;51.674;7.824;2022-12-13T15:09:44;8.15;;;3.20;;
48871;SDS011;36154;51.674;7.824;2022-12-13T15:12:14;7.03;;;3.10;;
48871;SDS011;36154;51.674;7.824;2022-12-13T15:14:42;9.20;;;3.15;;
48871;SDS011;36154;51.674;7.824;2022-12-13T15:19:51;9.85;;;3.25;;
48871;SDS011;36154;51.674;7.824;2022-12-13T15:22:16;6.82;;;2.92;;
48871;SDS011;36154;51.674;7.824;2022-12-13T15:24:42;5.35;;;2.60;;
48871;SDS011;36154;51.674;7.824;2022-12-13T15:27:11;6.50;;;2.63;;
48871;SDS011;36154;51.674;7.824;2022-12-13T15:29:37;5.97;;;2.95;;
48871;SDS011;36154;51.674;7.824;2022-12-13T15:32:03;4.53;;;2.45;;
48871;SDS011;36154;51.674;7.824;2022-12-13T15:34:35;6.28;;;2.78;;
48871;SDS011;36154;51.674;7.824;2022-12-13T15:37:02;5.22;;;2.08;;
48871;SDS011;36154;51.674;7.824;2022-12-13T15:39:39;7.70;;;2.70;;
48871;SDS011;36154;51.674;7.824;2022-12-13T15:42:21;4.13;;;2.45;;
48871;SDS011;36154;51.674;7.824;2022-12-13T15:44:59;3.33;;;2.40;;
48871;SDS011;36154;51.674;7.824;2022-12-13T15:47:26;4.95;;;2.30;;
48871;SDS011;36154;51.674;7.824;2022-12-13T15:49:53;4.18;;;2.25;;
48871;SDS011;36154;51.674;7.824;2022-12-13T15:52:30;3.40;;;2.35;;
48871;SDS011;36154;51.674;7.824;2022-12-13T15:54:59;5.35;;;2.75;;
48871;SDS011;36154;51.674;7.824;2022-12-13T15:57:35;7.30;;;2.70;;
48871;SDS011;36154;51.674;7.824;2022-12-13T16:02:56;4.53;;;2.17;;
48871;SDS011;36154;51.674;7.824;2022-12-13T16:05:39;4.80;;;2.00;;
48871;SDS011;36154;51.674;7.824;2022-12-13T16:08:25;2.70;;;2.10;;
48871;SDS011;36154;51.674;7.824;2022-12-13T16:10:54;2.17;;;1.80;;
48871;SDS011;36154;51.674;7.824;2022-12-13T16:13:32;5.18;;;2.35;;
48871;SDS011;36154;51.674;7.824;2022-12-13T16:16:01;2.75;;;2.00;;
48871;SDS011;36154;51.674;7.824;2022-12-13T16:18:52;2.08;;;1.88;;
48871;SDS011;36154;51.674;7.824;2022-12-13T16:21:20;3.00;;;2.03;;
48871;SDS011;36154;51.674;7.824;2022-12-13T16:23:46;4.30;;;2.20;;
48871;SDS011;36154;51.674;7.824;2022-12-13T16:26:11;2.65;;;1.38;;
48871;SDS011;36154;51.674;7.824;2022-12-13T16:28:38;3.00;;;1.65;;
48871;SDS011;36154;51.674;7.824;2022-12-13T16:31:11;3.95;;;1.70;;
48871;SDS011;36154;51.674;7.824;2022-12-13T16:33:40;3.63;;;1.70;;
48871;SDS011;36154;51.674;7.824;2022-12-13T16:36:07;4.07;;;1.70;;
48871;SDS011;36154;51.674;7.824;2022-12-13T16:38:33;2.97;;;1.52;;
48871;SDS011;36154;51.674;7.824;2022-12-13T16:40:58;1.58;;;1.33;;
48871;SDS011;36154;51.674;7.824;2022-12-13T16:43:25;1.50;;;1.40;;
48871;SDS011;36154;51.674;7.824;2022-12-13T16:45:51;1.45;;;1.40;;
48871;SDS011;36154;51.674;7.824;2022-12-13T16:48:18;3.25;;;1.20;;
48871;SDS011;36154;51.674;7.824;2022-12-13T16:50:45;3.67;;;1.50;;
48871;SDS011;36154;51.674;7.824;2022-12-13T16:53:12;1.30;;;1.23;;
48871;SDS011;36154;51.674;7.824;2022-12-13T16:55:37;1.35;;;1.25;;
48871;SDS011;36154;51.674;7.824;2022-12-13T16:58:04;1.48;;;1.38;;
48871;SDS011;36154;51.674;7.824;2022-12-13T17:00:31;1.42;;;1.33;;
48871;SDS011;36154;51.674;7.824;2022-12-13T17:02:58;1.13;;;1.05;;
48871;SDS011;36154;51.674;7.824;2022-12-13T17:05:25;1.05;;;1.02;;
48871;SDS011;36154;51.674;7.824;2022-12-13T17:07:51;1.30;;;1.10;;
48871;SDS011;36154;51.674;7.824;2022-12-13T17:10:17;1.42;;;1.20;;
48871;SDS011;36154;51.674;7.824;2022-12-13T17:12:43;2.40;;;1.10;;
48871;SDS011;36154;51.674;7.824;2022-12-13T17:15:09;1.20;;;1.10;;
48871;SDS011;36154;51.674;7.824;2022-12-13T17:17:36;1.35;;;1.25;;
48871;SDS011;36154;51.674;7.824;2022-12-13T17:20:03;2.38;;;2.13;;
48871;SDS011;36154;51.674;7.824;2022-12-13T17:22:33;3.92;;;2.47;;
48871;SDS011;36154;51.674;7.824;2022-12-13T17:24:58;3.83;;;2.90;;
48871;SDS011;36154;51.674;7.824;2022-12-13T17:27:24;2.95;;;2.50;;
48871;SDS011;36154;51.674;7.824;2022-12-13T17:29:49;3.33;;;2.67;;